sensor_id;sensor_type;location;lat;lon;timestamp;P1;durP1;ratioP1;P2;durP2;ratioP2
68074;SDS011;54864;52.002;5.468;2022-12-18T00:01:01;105.80;;;51.03;;
68074;SDS011;54864;52.002;5.468;2022-12-18T00:02:06;101.47;;;49.83;;
68074;SDS011;54864;52.002;5.468;2022-12-18T00:03:08;104.93;;;52.17;;
68074;SDS011;54864;52.002;5.468;2022-12-18T00:04:15;102.50;;;50.60;;
68074;SDS011;54864;52.002;5.468;2022-12-18T00:05:21;99.10;;;48.20;;
68074;SDS011;54864;52.002;5.468;2022-12-18T00:06:22;93.60;;;47.47;;
68074;SDS011;54864;52.002;5.468;2022-12-18T00:07:24;98.85;;;50.95;;
68074;SDS011;54864;52.002;5.468;2022-12-18T00:08:25;92.50;;;49.30;;
68074;SDS011;54864;52.002;5.468;2022-12-18T00:09:27;98.43;;;48.80;;
68074;SDS011;54864;52.002;5.468;2022-12-18T00:10:28;95.53;;;47.13;;
68074;SDS011;54864;52.002;5.468;2022-12-18T00:11:30;97.88;;;50.45;;
68074;SDS011;54864;52.002;5.468;2022-12-18T00:12:33;99.28;;;50.80;;
68074;SDS011;54864;52.002;5.468;2022-12-18T00:13:35;95.95;;;47.15;;
68074;SDS011;54864;52.002;5.468;2022-12-18T00:14:36;99.38;;;47.90;;
68074;SDS011;54864;52.002;5.468;2022-12-18T00:15:38;95.72;;;48.90;;
68074;SDS011;54864;52.002;5.468;2022-12-18T00:16:40;98.72;;;49.40;;
68074;SDS011;54864;52.002;5.468;2022-12-18T00:17:47;97.85;;;48.95;;
68074;SDS011;54864;52.002;5.468;2022-12-18T00:18:47;95.72;;;48.78;;
68074;SDS011;54864;52.002;5.468;2022-12-18T00:19:51;96.22;;;47.83;;
68074;SDS011;54864;52.002;5.468;2022-12-18T00:20:52;96.13;;;49.80;;
68074;SDS011;54864;52.002;5.468;2022-12-18T00:21:54;102.82;;;49.55;;
68074;SDS011;54864;52.002;5.468;2022-12-18T00:22:54;96.90;;;50.20;;
68074;SDS011;54864;52.002;5.468;2022-12-18T00:23:57;96.68;;;48.05;;
68074;SDS011;54864;52.002;5.468;2022-12-18T00:24:58;99.43;;;48.58;;
68074;SDS011;54864;52.002;5.468;2022-12-18T00:26:01;99.40;;;48.15;;
68074;SDS011;54864;52.002;5.468;2022-12-18T00:27:03;103.37;;;50.73;;
68074;SDS011;54864;52.002;5.468;2022-12-18T00:28:06;96.03;;;47.05;;
68074;SDS011;54864;52.002;5.468;2022-12-18T00:29:08;92.85;;;47.30;;
68074;SDS011;54864;52.002;5.468;2022-12-18T00:30:13;100.90;;;48.33;;
68074;SDS011;54864;52.002;5.468;2022-12-18T00:31:15;91.63;;;46.85;;
68074;SDS011;54864;52.002;5.468;2022-12-18T00:32:18;98.22;;;47.85;;
68074;SDS011;54864;52.002;5.468;2022-12-18T00:33:19;95.47;;;47.60;;
68074;SDS011;54864;52.002;5.468;2022-12-18T00:34:20;94.35;;;47.17;;
68074;SDS011;54864;52.002;5.468;2022-12-18T00:35:21;101.50;;;49.07;;
68074;SDS011;54864;52.002;5.468;2022-12-18T00:36:24;99.45;;;48.58;;
68074;SDS011;54864;52.002;5.468;2022-12-18T00:37:27;101.53;;;48.50;;
68074;SDS011;54864;52.002;5.468;2022-12-18T00:38:29;99.05;;;48.92;;
68074;SDS011;54864;52.002;5.468;2022-12-18T00:39:29;95.78;;;47.53;;
68074;SDS011;54864;52.002;5.468;2022-12-18T00:40:31;96.70;;;48.83;;
68074;SDS011;54864;52.002;5.468;2022-12-18T00:41:32;97.60;;;49.45;;
68074;SDS011;54864;52.002;5.468;2022-12-18T00:42:52;96.23;;;48.57;;
68074;SDS011;54864;52.002;5.468;2022-12-18T00:43:57;95.55;;;48.40;;
68074;SDS011;54864;52.002;5.468;2022-12-18T00:44:58;92.20;;;47.70;;
68074;SDS011;54864;52.002;5.468;2022-12-18T00:46:00;94.45;;;48.03;;
68074;SDS011;54864;52.002;5.468;2022-12-18T00:47:02;90.93;;;47.13;;
68074;SDS011;54864;52.002;5.468;2022-12-18T00:48:03;97.80;;;47.83;;
68074;SDS011;54864;52.002;5.468;2022-12-18T00:49:25;92.60;;;47.92;;
68074;SDS011;54864;52.002;5.468;2022-12-18T00:50:47;82.43;;;44.15;;
68074;SDS011;54864;52.002;5.468;2022-12-18T00:52:10;92.18;;;46.00;;
68074;SDS011;54864;52.002;5.468;2022-12-18T00:53:20;89.93;;;45.47;;
68074;SDS011;54864;52.002;5.468;2022-12-18T00:54:21;86.65;;;44.97;;
68074;SDS011;54864;52.002;5.468;2022-12-18T00:55:22;88.40;;;44.55;;
68074;SDS011;54864;52.002;5.468;2022-12-18T00:56:24;86.32;;;44.22;;
68074;SDS011;54864;52.002;5.468;2022-12-18T00:57:26;91.88;;;44.65;;
68074;SDS011;54864;52.002;5.468;2022-12-18T00:58:26;82.07;;;43.30;;
68074;SDS011;54864;52.002;5.468;2022-12-18T00:59:29;90.65;;;44.50;;
68074;SDS011;54864;52.002;5.468;2022-12-18T01:00:30;85.07;;;43.67;;
68074;SDS011;54864;52.002;5.468;2022-12-18T01:01:32;81.72;;;42.63;;
68074;SDS011;54864;52.002;5.468;2022-12-18T01:02:33;82.70;;;42.78;;
68074;SDS011;54864;52.002;5.468;2022-12-18T01:03:35;84.25;;;43.70;;
68074;SDS011;54864;52.002;5.468;2022-12-18T01:04:35;87.28;;;43.83;;
68074;SDS011;54864;52.002;5.468;2022-12-18T01:05:38;83.03;;;43.60;;
68074;SDS011;54864;52.002;5.468;2022-12-18T01:06:39;82.75;;;42.45;;
68074;SDS011;54864;52.002;5.468;2022-12-18T01:07:41;82.15;;;43.35;;
68074;SDS011;54864;52.002;5.468;2022-12-18T01:08:42;89.10;;;44.30;;
68074;SDS011;54864;52.002;5.468;2022-12-18T01:09:44;87.63;;;44.78;;
68074;SDS011;54864;52.002;5.468;2022-12-18T01:10:45;87.93;;;43.88;;
68074;SDS011;54864;52.002;5.468;2022-12-18T01:11:47;88.38;;;46.13;;
68074;SDS011;54864;52.002;5.468;2022-12-18T01:12:47;85.80;;;44.27;;
68074;SDS011;54864;52.002;5.468;2022-12-18T01:13:51;88.05;;;43.80;;
68074;SDS011;54864;52.002;5.468;2022-12-18T01:14:54;90.00;;;44.50;;
68074;SDS011;54864;52.002;5.468;2022-12-18T01:15:55;88.97;;;44.95;;
68074;SDS011;54864;52.002;5.468;2022-12-18T01:16:56;86.30;;;44.25;;
68074;SDS011;54864;52.002;5.468;2022-12-18T01:17:58;88.10;;;45.20;;
68074;SDS011;54864;52.002;5.468;2022-12-18T01:18:59;92.00;;;45.27;;
68074;SDS011;54864;52.002;5.468;2022-12-18T01:20:00;87.40;;;45.58;;
68074;SDS011;54864;52.002;5.468;2022-12-18T01:21:05;93.70;;;47.28;;
68074;SDS011;54864;52.002;5.468;2022-12-18T01:22:07;89.28;;;45.38;;
68074;SDS011;54864;52.002;5.468;2022-12-18T01:23:08;90.43;;;44.55;;
68074;SDS011;54864;52.002;5.468;2022-12-18T01:24:10;85.28;;;44.13;;
68074;SDS011;54864;52.002;5.468;2022-12-18T01:25:12;89.05;;;45.08;;
68074;SDS011;54864;52.002;5.468;2022-12-18T01:26:14;91.13;;;45.53;;
68074;SDS011;54864;52.002;5.468;2022-12-18T01:27:16;88.90;;;45.03;;
68074;SDS011;54864;52.002;5.468;2022-12-18T01:28:18;91.80;;;46.28;;
68074;SDS011;54864;52.002;5.468;2022-12-18T01:29:20;91.38;;;46.10;;
68074;SDS011;54864;52.002;5.468;2022-12-18T01:30:24;94.88;;;46.58;;
68074;SDS011;54864;52.002;5.468;2022-12-18T01:31:25;92.00;;;45.95;;
68074;SDS011;54864;52.002;5.468;2022-12-18T01:32:29;98.88;;;48.47;;
68074;SDS011;54864;52.002;5.468;2022-12-18T01:33:31;90.78;;;45.60;;
68074;SDS011;54864;52.002;5.468;2022-12-18T01:34:33;94.35;;;46.15;;
68074;SDS011;54864;52.002;5.468;2022-12-18T01:35:39;90.10;;;45.92;;
68074;SDS011;54864;52.002;5.468;2022-12-18T01:36:42;89.75;;;46.45;;
68074;SDS011;54864;52.002;5.468;2022-12-18T01:37:43;90.05;;;45.58;;
68074;SDS011;54864;52.002;5.468;2022-12-18T01:38:45;94.40;;;46.97;;
68074;SDS011;54864;52.002;5.468;2022-12-18T01:39:46;93.50;;;46.95;;
68074;SDS011;54864;52.002;5.468;2022-12-18T01:40:56;98.00;;;47.45;;
68074;SDS011;54864;52.002;5.468;2022-12-18T01:41:57;91.47;;;46.35;;
68074;SDS011;54864;52.002;5.468;2022-12-18T01:43:05;92.15;;;45.72;;
68074;SDS011;54864;52.002;5.468;2022-12-18T01:45:42;86.68;;;44.83;;
68074;SDS011;54864;52.002;5.468;2022-12-18T01:46:44;85.47;;;44.60;;
68074;SDS011;54864;52.002;5.468;2022-12-18T01:47:46;88.85;;;44.78;;
68074;SDS011;54864;52.002;5.468;2022-12-18T01:48:50;88.65;;;45.95;;
68074;SDS011;54864;52.002;5.468;2022-12-18T01:49:54;86.10;;;43.92;;
68074;SDS011;54864;52.002;5.468;2022-12-18T01:50:57;85.90;;;45.28;;
68074;SDS011;54864;52.002;5.468;2022-12-18T01:52:02;83.75;;;43.95;;
68074;SDS011;54864;52.002;5.468;2022-12-18T01:53:05;87.70;;;44.90;;
68074;SDS011;54864;52.002;5.468;2022-12-18T01:54:11;90.95;;;45.90;;
68074;SDS011;54864;52.002;5.468;2022-12-18T01:55:12;82.30;;;44.20;;
68074;SDS011;54864;52.002;5.468;2022-12-18T01:56:17;83.97;;;42.83;;
68074;SDS011;54864;52.002;5.468;2022-12-18T01:57:21;83.95;;;44.90;;
68074;SDS011;54864;52.002;5.468;2022-12-18T01:58:27;85.20;;;45.10;;
68074;SDS011;54864;52.002;5.468;2022-12-18T01:59:36;86.25;;;43.33;;
68074;SDS011;54864;52.002;5.468;2022-12-18T02:00:40;88.15;;;43.72;;
68074;SDS011;54864;52.002;5.468;2022-12-18T02:01:43;83.90;;;43.10;;
68074;SDS011;54864;52.002;5.468;2022-12-18T02:02:45;83.07;;;44.72;;
68074;SDS011;54864;52.002;5.468;2022-12-18T02:03:47;82.43;;;42.90;;
68074;SDS011;54864;52.002;5.468;2022-12-18T02:04:48;84.20;;;45.28;;
68074;SDS011;54864;52.002;5.468;2022-12-18T02:05:52;78.88;;;42.15;;
68074;SDS011;54864;52.002;5.468;2022-12-18T02:07:03;82.38;;;42.55;;
68074;SDS011;54864;52.002;5.468;2022-12-18T02:08:14;85.78;;;42.67;;
68074;SDS011;54864;52.002;5.468;2022-12-18T02:09:23;78.70;;;41.63;;
68074;SDS011;54864;52.002;5.468;2022-12-18T02:10:33;83.22;;;43.65;;
68074;SDS011;54864;52.002;5.468;2022-12-18T02:11:40;75.10;;;41.80;;
68074;SDS011;54864;52.002;5.468;2022-12-18T02:12:52;79.30;;;41.42;;
68074;SDS011;54864;52.002;5.468;2022-12-18T02:14:02;79.25;;;41.67;;
68074;SDS011;54864;52.002;5.468;2022-12-18T02:15:19;81.82;;;42.63;;
68074;SDS011;54864;52.002;5.468;2022-12-18T02:16:29;84.10;;;43.47;;
68074;SDS011;54864;52.002;5.468;2022-12-18T02:17:43;79.17;;;42.67;;
68074;SDS011;54864;52.002;5.468;2022-12-18T02:18:51;80.45;;;41.13;;
68074;SDS011;54864;52.002;5.468;2022-12-18T02:20:02;76.55;;;40.20;;
68074;SDS011;54864;52.002;5.468;2022-12-18T02:21:12;79.40;;;41.67;;
68074;SDS011;54864;52.002;5.468;2022-12-18T02:22:29;77.93;;;41.28;;
68074;SDS011;54864;52.002;5.468;2022-12-18T02:23:41;77.63;;;40.83;;
68074;SDS011;54864;52.002;5.468;2022-12-18T02:24:54;73.32;;;38.83;;
68074;SDS011;54864;52.002;5.468;2022-12-18T02:26:08;75.35;;;40.05;;
68074;SDS011;54864;52.002;5.468;2022-12-18T02:27:17;75.10;;;40.17;;
68074;SDS011;54864;52.002;5.468;2022-12-18T02:28:19;77.10;;;40.80;;
68074;SDS011;54864;52.002;5.468;2022-12-18T02:29:25;74.72;;;40.63;;
68074;SDS011;54864;52.002;5.468;2022-12-18T02:30:30;75.30;;;39.53;;
68074;SDS011;54864;52.002;5.468;2022-12-18T02:31:36;75.13;;;38.28;;
68074;SDS011;54864;52.002;5.468;2022-12-18T02:32:42;76.00;;;39.67;;
68074;SDS011;54864;52.002;5.468;2022-12-18T02:33:46;79.43;;;40.60;;
68074;SDS011;54864;52.002;5.468;2022-12-18T02:34:49;68.05;;;38.95;;
68074;SDS011;54864;52.002;5.468;2022-12-18T02:35:53;73.60;;;38.63;;
68074;SDS011;54864;52.002;5.468;2022-12-18T02:36:58;77.82;;;41.33;;
68074;SDS011;54864;52.002;5.468;2022-12-18T02:38:03;68.85;;;37.78;;
68074;SDS011;54864;52.002;5.468;2022-12-18T02:39:25;65.03;;;37.03;;
68074;SDS011;54864;52.002;5.468;2022-12-18T02:40:50;73.75;;;39.35;;
68074;SDS011;54864;52.002;5.468;2022-12-18T02:42:15;72.10;;;39.67;;
68074;SDS011;54864;52.002;5.468;2022-12-18T02:43:39;70.53;;;37.90;;
68074;SDS011;54864;52.002;5.468;2022-12-18T02:45:01;71.25;;;38.50;;
68074;SDS011;54864;52.002;5.468;2022-12-18T02:46:28;69.68;;;38.15;;
68074;SDS011;54864;52.002;5.468;2022-12-18T02:47:52;72.15;;;39.33;;
68074;SDS011;54864;52.002;5.468;2022-12-18T02:49:21;67.38;;;37.80;;
68074;SDS011;54864;52.002;5.468;2022-12-18T02:50:52;68.40;;;37.83;;
68074;SDS011;54864;52.002;5.468;2022-12-18T02:52:22;68.13;;;37.03;;
68074;SDS011;54864;52.002;5.468;2022-12-18T02:53:50;69.75;;;38.45;;
68074;SDS011;54864;52.002;5.468;2022-12-18T02:55:17;65.25;;;35.85;;
68074;SDS011;54864;52.002;5.468;2022-12-18T02:56:48;67.43;;;36.45;;
68074;SDS011;54864;52.002;5.468;2022-12-18T02:58:14;67.72;;;37.53;;
68074;SDS011;54864;52.002;5.468;2022-12-18T02:59:41;65.32;;;36.58;;
68074;SDS011;54864;52.002;5.468;2022-12-18T03:01:13;67.38;;;37.33;;
68074;SDS011;54864;52.002;5.468;2022-12-18T03:02:41;67.13;;;36.63;;
68074;SDS011;54864;52.002;5.468;2022-12-18T03:04:07;62.90;;;36.17;;
68074;SDS011;54864;52.002;5.468;2022-12-18T03:05:35;66.95;;;35.88;;
68074;SDS011;54864;52.002;5.468;2022-12-18T03:07:01;64.37;;;35.37;;
68074;SDS011;54864;52.002;5.468;2022-12-18T03:08:06;63.92;;;36.63;;
68074;SDS011;54864;52.002;5.468;2022-12-18T03:09:12;69.35;;;36.22;;
68074;SDS011;54864;52.002;5.468;2022-12-18T03:10:18;68.47;;;37.33;;
68074;SDS011;54864;52.002;5.468;2022-12-18T03:11:25;64.65;;;35.05;;
68074;SDS011;54864;52.002;5.468;2022-12-18T03:12:43;64.85;;;35.60;;
68074;SDS011;54864;52.002;5.468;2022-12-18T03:13:50;61.50;;;35.17;;
68074;SDS011;54864;52.002;5.468;2022-12-18T03:14:57;63.03;;;34.28;;
68074;SDS011;54864;52.002;5.468;2022-12-18T03:16:05;67.28;;;35.17;;
68074;SDS011;54864;52.002;5.468;2022-12-18T03:17:09;59.38;;;33.92;;
68074;SDS011;54864;52.002;5.468;2022-12-18T03:18:16;62.47;;;33.83;;
68074;SDS011;54864;52.002;5.468;2022-12-18T03:19:20;57.40;;;33.30;;
68074;SDS011;54864;52.002;5.468;2022-12-18T03:20:25;62.65;;;33.90;;
68074;SDS011;54864;52.002;5.468;2022-12-18T03:21:29;59.13;;;33.40;;
68074;SDS011;54864;52.002;5.468;2022-12-18T03:22:37;57.35;;;33.38;;
68074;SDS011;54864;52.002;5.468;2022-12-18T03:23:39;61.75;;;34.35;;
68074;SDS011;54864;52.002;5.468;2022-12-18T03:24:44;59.60;;;33.17;;
68074;SDS011;54864;52.002;5.468;2022-12-18T03:25:48;62.05;;;33.03;;
68074;SDS011;54864;52.002;5.468;2022-12-18T03:26:58;62.13;;;33.58;;
68074;SDS011;54864;52.002;5.468;2022-12-18T03:28:02;63.03;;;33.50;;
68074;SDS011;54864;52.002;5.468;2022-12-18T03:29:11;59.20;;;33.65;;
68074;SDS011;54864;52.002;5.468;2022-12-18T03:30:17;55.75;;;31.90;;
68074;SDS011;54864;52.002;5.468;2022-12-18T03:31:19;62.33;;;33.22;;
68074;SDS011;54864;52.002;5.468;2022-12-18T03:32:23;55.45;;;31.67;;
68074;SDS011;54864;52.002;5.468;2022-12-18T03:33:30;58.42;;;33.67;;
68074;SDS011;54864;52.002;5.468;2022-12-18T03:34:38;56.15;;;32.72;;
68074;SDS011;54864;52.002;5.468;2022-12-18T03:35:43;58.92;;;32.50;;
68074;SDS011;54864;52.002;5.468;2022-12-18T03:36:44;57.90;;;32.97;;
68074;SDS011;54864;52.002;5.468;2022-12-18T03:37:46;53.25;;;31.63;;
68074;SDS011;54864;52.002;5.468;2022-12-18T03:38:47;60.92;;;32.40;;
68074;SDS011;54864;52.002;5.468;2022-12-18T03:39:49;57.05;;;32.38;;
68074;SDS011;54864;52.002;5.468;2022-12-18T03:40:53;54.22;;;30.83;;
68074;SDS011;54864;52.002;5.468;2022-12-18T03:42:01;53.95;;;31.48;;
68074;SDS011;54864;52.002;5.468;2022-12-18T03:43:08;55.58;;;30.88;;
68074;SDS011;54864;52.002;5.468;2022-12-18T03:44:19;54.72;;;31.42;;
68074;SDS011;54864;52.002;5.468;2022-12-18T03:45:26;56.92;;;31.77;;
68074;SDS011;54864;52.002;5.468;2022-12-18T03:46:33;52.72;;;30.45;;
68074;SDS011;54864;52.002;5.468;2022-12-18T03:47:42;53.67;;;31.13;;
68074;SDS011;54864;52.002;5.468;2022-12-18T03:48:50;54.42;;;30.98;;
68074;SDS011;54864;52.002;5.468;2022-12-18T03:49:57;55.10;;;31.67;;
68074;SDS011;54864;52.002;5.468;2022-12-18T03:51:09;51.35;;;30.38;;
68074;SDS011;54864;52.002;5.468;2022-12-18T03:52:16;51.08;;;29.73;;
68074;SDS011;54864;52.002;5.468;2022-12-18T03:53:27;53.40;;;31.27;;
68074;SDS011;54864;52.002;5.468;2022-12-18T03:54:36;53.47;;;30.75;;
68074;SDS011;54864;52.002;5.468;2022-12-18T03:55:40;54.08;;;31.25;;
68074;SDS011;54864;52.002;5.468;2022-12-18T03:56:44;52.65;;;29.30;;
68074;SDS011;54864;52.002;5.468;2022-12-18T03:57:49;52.15;;;30.50;;
68074;SDS011;54864;52.002;5.468;2022-12-18T03:58:52;51.90;;;29.88;;
68074;SDS011;54864;52.002;5.468;2022-12-18T04:00:00;53.15;;;30.38;;
68074;SDS011;54864;52.002;5.468;2022-12-18T04:01:04;51.05;;;29.42;;
68074;SDS011;54864;52.002;5.468;2022-12-18T04:02:09;53.08;;;31.05;;
68074;SDS011;54864;52.002;5.468;2022-12-18T04:03:10;49.50;;;29.77;;
68074;SDS011;54864;52.002;5.468;2022-12-18T04:04:13;49.55;;;29.60;;
68074;SDS011;54864;52.002;5.468;2022-12-18T04:05:16;53.65;;;30.67;;
68074;SDS011;54864;52.002;5.468;2022-12-18T04:06:19;51.10;;;30.13;;
68074;SDS011;54864;52.002;5.468;2022-12-18T04:07:21;50.28;;;29.02;;
68074;SDS011;54864;52.002;5.468;2022-12-18T04:08:24;50.60;;;29.23;;
68074;SDS011;54864;52.002;5.468;2022-12-18T04:09:25;53.35;;;29.38;;
68074;SDS011;54864;52.002;5.468;2022-12-18T04:10:28;54.33;;;30.20;;
68074;SDS011;54864;52.002;5.468;2022-12-18T04:11:30;46.78;;;29.02;;
68074;SDS011;54864;52.002;5.468;2022-12-18T04:12:32;47.17;;;28.17;;
68074;SDS011;54864;52.002;5.468;2022-12-18T04:13:34;50.92;;;28.65;;
68074;SDS011;54864;52.002;5.468;2022-12-18T04:14:37;51.63;;;29.92;;
68074;SDS011;54864;52.002;5.468;2022-12-18T04:15:49;48.95;;;30.08;;
68074;SDS011;54864;52.002;5.468;2022-12-18T04:16:50;54.42;;;29.48;;
68074;SDS011;54864;52.002;5.468;2022-12-18T04:17:53;55.33;;;30.95;;
68074;SDS011;54864;52.002;5.468;2022-12-18T04:18:56;45.22;;;27.80;;
68074;SDS011;54864;52.002;5.468;2022-12-18T04:19:57;50.95;;;28.98;;
68074;SDS011;54864;52.002;5.468;2022-12-18T04:20:58;50.58;;;29.33;;
68074;SDS011;54864;52.002;5.468;2022-12-18T04:21:59;47.90;;;28.53;;
68074;SDS011;54864;52.002;5.468;2022-12-18T04:23:01;46.67;;;28.38;;
68074;SDS011;54864;52.002;5.468;2022-12-18T04:24:02;45.20;;;27.63;;
68074;SDS011;54864;52.002;5.468;2022-12-18T04:25:04;48.28;;;28.95;;
68074;SDS011;54864;52.002;5.468;2022-12-18T04:26:05;50.38;;;28.60;;
68074;SDS011;54864;52.002;5.468;2022-12-18T04:27:07;47.20;;;27.38;;
68074;SDS011;54864;52.002;5.468;2022-12-18T04:28:08;51.28;;;29.10;;
68074;SDS011;54864;52.002;5.468;2022-12-18T04:29:09;50.33;;;28.85;;
68074;SDS011;54864;52.002;5.468;2022-12-18T04:30:10;49.15;;;28.67;;
68074;SDS011;54864;52.002;5.468;2022-12-18T04:31:14;46.28;;;27.98;;
68074;SDS011;54864;52.002;5.468;2022-12-18T04:32:15;46.85;;;27.40;;
68074;SDS011;54864;52.002;5.468;2022-12-18T04:33:16;47.40;;;27.27;;
68074;SDS011;54864;52.002;5.468;2022-12-18T04:34:17;51.40;;;28.65;;
68074;SDS011;54864;52.002;5.468;2022-12-18T04:35:19;46.47;;;27.73;;
68074;SDS011;54864;52.002;5.468;2022-12-18T04:36:20;45.50;;;27.80;;
68074;SDS011;54864;52.002;5.468;2022-12-18T04:37:22;44.03;;;27.13;;
68074;SDS011;54864;52.002;5.468;2022-12-18T04:38:23;45.95;;;28.27;;
68074;SDS011;54864;52.002;5.468;2022-12-18T04:39:25;48.13;;;28.13;;
68074;SDS011;54864;52.002;5.468;2022-12-18T04:40:25;45.50;;;26.50;;
68074;SDS011;54864;52.002;5.468;2022-12-18T04:41:27;46.83;;;27.20;;
68074;SDS011;54864;52.002;5.468;2022-12-18T04:42:28;43.25;;;26.38;;
68074;SDS011;54864;52.002;5.468;2022-12-18T04:43:30;43.25;;;26.10;;
68074;SDS011;54864;52.002;5.468;2022-12-18T04:44:32;45.10;;;27.05;;
68074;SDS011;54864;52.002;5.468;2022-12-18T04:45:34;47.55;;;27.73;;
68074;SDS011;54864;52.002;5.468;2022-12-18T04:46:37;44.70;;;27.70;;
68074;SDS011;54864;52.002;5.468;2022-12-18T04:47:38;45.60;;;26.53;;
68074;SDS011;54864;52.002;5.468;2022-12-18T04:48:39;46.53;;;27.20;;
68074;SDS011;54864;52.002;5.468;2022-12-18T04:49:41;47.10;;;26.52;;
68074;SDS011;54864;52.002;5.468;2022-12-18T04:50:42;45.30;;;26.70;;
68074;SDS011;54864;52.002;5.468;2022-12-18T04:51:44;45.60;;;27.33;;
68074;SDS011;54864;52.002;5.468;2022-12-18T04:52:44;43.72;;;26.45;;
68074;SDS011;54864;52.002;5.468;2022-12-18T04:53:46;45.85;;;26.00;;
68074;SDS011;54864;52.002;5.468;2022-12-18T04:54:47;46.90;;;25.65;;
68074;SDS011;54864;52.002;5.468;2022-12-18T04:55:49;42.83;;;24.90;;
68074;SDS011;54864;52.002;5.468;2022-12-18T04:56:49;40.20;;;25.35;;
68074;SDS011;54864;52.002;5.468;2022-12-18T04:57:51;44.10;;;25.38;;
68074;SDS011;54864;52.002;5.468;2022-12-18T04:58:52;45.33;;;25.90;;
68074;SDS011;54864;52.002;5.468;2022-12-18T04:59:54;43.72;;;26.42;;
68074;SDS011;54864;52.002;5.468;2022-12-18T05:00:55;44.27;;;25.57;;
68074;SDS011;54864;52.002;5.468;2022-12-18T05:01:58;44.38;;;26.30;;
68074;SDS011;54864;52.002;5.468;2022-12-18T05:03:00;41.42;;;24.50;;
68074;SDS011;54864;52.002;5.468;2022-12-18T05:04:02;43.60;;;24.77;;
68074;SDS011;54864;52.002;5.468;2022-12-18T05:05:04;42.63;;;25.52;;
68074;SDS011;54864;52.002;5.468;2022-12-18T05:06:07;46.25;;;25.65;;
68074;SDS011;54864;52.002;5.468;2022-12-18T05:07:08;40.17;;;25.13;;
68074;SDS011;54864;52.002;5.468;2022-12-18T05:08:10;41.65;;;24.60;;
68074;SDS011;54864;52.002;5.468;2022-12-18T05:09:10;39.83;;;25.23;;
68074;SDS011;54864;52.002;5.468;2022-12-18T05:10:12;43.40;;;25.25;;
68074;SDS011;54864;52.002;5.468;2022-12-18T05:11:13;45.63;;;24.70;;
68074;SDS011;54864;52.002;5.468;2022-12-18T05:12:16;41.10;;;25.13;;
68074;SDS011;54864;52.002;5.468;2022-12-18T05:13:17;41.67;;;25.85;;
68074;SDS011;54864;52.002;5.468;2022-12-18T05:14:19;41.88;;;24.60;;
68074;SDS011;54864;52.002;5.468;2022-12-18T05:15:20;43.13;;;25.35;;
68074;SDS011;54864;52.002;5.468;2022-12-18T05:16:21;44.50;;;24.83;;
68074;SDS011;54864;52.002;5.468;2022-12-18T05:17:24;41.70;;;25.55;;
68074;SDS011;54864;52.002;5.468;2022-12-18T05:18:25;42.70;;;25.00;;
68074;SDS011;54864;52.002;5.468;2022-12-18T05:19:27;40.80;;;25.17;;
68074;SDS011;54864;52.002;5.468;2022-12-18T05:20:29;44.78;;;24.38;;
68074;SDS011;54864;52.002;5.468;2022-12-18T05:21:30;41.03;;;24.95;;
68074;SDS011;54864;52.002;5.468;2022-12-18T05:22:32;41.47;;;23.98;;
68074;SDS011;54864;52.002;5.468;2022-12-18T05:23:32;45.00;;;25.85;;
68074;SDS011;54864;52.002;5.468;2022-12-18T05:24:35;40.95;;;24.20;;
68074;SDS011;54864;52.002;5.468;2022-12-18T05:25:36;39.72;;;24.42;;
68074;SDS011;54864;52.002;5.468;2022-12-18T05:26:38;41.42;;;24.63;;
68074;SDS011;54864;52.002;5.468;2022-12-18T05:27:39;41.93;;;24.33;;
68074;SDS011;54864;52.002;5.468;2022-12-18T05:28:41;40.97;;;24.27;;
68074;SDS011;54864;52.002;5.468;2022-12-18T05:29:41;44.90;;;24.52;;
68074;SDS011;54864;52.002;5.468;2022-12-18T05:30:46;40.67;;;23.65;;
68074;SDS011;54864;52.002;5.468;2022-12-18T05:31:48;37.80;;;24.17;;
68074;SDS011;54864;52.002;5.468;2022-12-18T05:32:51;37.47;;;23.15;;
68074;SDS011;54864;52.002;5.468;2022-12-18T05:33:52;37.85;;;24.00;;
68074;SDS011;54864;52.002;5.468;2022-12-18T05:34:54;41.28;;;23.75;;
68074;SDS011;54864;52.002;5.468;2022-12-18T05:35:57;42.30;;;25.27;;
68074;SDS011;54864;52.002;5.468;2022-12-18T05:37:00;39.55;;;24.27;;
68074;SDS011;54864;52.002;5.468;2022-12-18T05:38:01;37.35;;;23.58;;
68074;SDS011;54864;52.002;5.468;2022-12-18T05:39:03;40.95;;;23.65;;
68074;SDS011;54864;52.002;5.468;2022-12-18T05:40:04;40.63;;;23.17;;
68074;SDS011;54864;52.002;5.468;2022-12-18T05:41:07;44.35;;;24.98;;
68074;SDS011;54864;52.002;5.468;2022-12-18T05:42:09;39.17;;;22.75;;
68074;SDS011;54864;52.002;5.468;2022-12-18T05:43:10;40.85;;;24.58;;
68074;SDS011;54864;52.002;5.468;2022-12-18T05:44:11;37.90;;;22.75;;
68074;SDS011;54864;52.002;5.468;2022-12-18T05:45:13;40.42;;;23.63;;
68074;SDS011;54864;52.002;5.468;2022-12-18T05:46:14;37.80;;;22.50;;
68074;SDS011;54864;52.002;5.468;2022-12-18T05:47:17;37.22;;;22.58;;
68074;SDS011;54864;52.002;5.468;2022-12-18T05:48:19;38.97;;;23.77;;
68074;SDS011;54864;52.002;5.468;2022-12-18T05:49:22;36.30;;;22.50;;
68074;SDS011;54864;52.002;5.468;2022-12-18T05:50:23;39.95;;;24.17;;
68074;SDS011;54864;52.002;5.468;2022-12-18T05:51:24;37.88;;;22.45;;
68074;SDS011;54864;52.002;5.468;2022-12-18T05:52:25;42.42;;;23.20;;
68074;SDS011;54864;52.002;5.468;2022-12-18T05:53:27;38.10;;;22.38;;
68074;SDS011;54864;52.002;5.468;2022-12-18T05:54:28;37.80;;;22.60;;
68074;SDS011;54864;52.002;5.468;2022-12-18T05:55:32;38.67;;;22.88;;
68074;SDS011;54864;52.002;5.468;2022-12-18T05:56:33;35.65;;;22.13;;
68074;SDS011;54864;52.002;5.468;2022-12-18T05:57:35;39.25;;;22.73;;
68074;SDS011;54864;52.002;5.468;2022-12-18T05:58:36;40.55;;;22.02;;
68074;SDS011;54864;52.002;5.468;2022-12-18T05:59:38;36.35;;;21.70;;
68074;SDS011;54864;52.002;5.468;2022-12-18T06:00:40;36.38;;;21.77;;
68074;SDS011;54864;52.002;5.468;2022-12-18T06:01:43;36.28;;;22.10;;
68074;SDS011;54864;52.002;5.468;2022-12-18T06:02:46;39.80;;;22.35;;
68074;SDS011;54864;52.002;5.468;2022-12-18T06:03:49;36.45;;;23.17;;
68074;SDS011;54864;52.002;5.468;2022-12-18T06:04:50;35.55;;;21.65;;
68074;SDS011;54864;52.002;5.468;2022-12-18T06:05:52;37.88;;;21.92;;
68074;SDS011;54864;52.002;5.468;2022-12-18T06:06:53;36.30;;;21.73;;
68074;SDS011;54864;52.002;5.468;2022-12-18T06:08:15;35.90;;;21.73;;
68074;SDS011;54864;52.002;5.468;2022-12-18T06:09:36;39.08;;;22.85;;
68074;SDS011;54864;52.002;5.468;2022-12-18T06:10:58;40.38;;;21.58;;
68074;SDS011;54864;52.002;5.468;2022-12-18T06:12:19;36.72;;;22.33;;
68074;SDS011;54864;52.002;5.468;2022-12-18T06:13:41;35.45;;;21.05;;
68074;SDS011;54864;52.002;5.468;2022-12-18T06:15:04;33.40;;;20.83;;
68074;SDS011;54864;52.002;5.468;2022-12-18T06:16:27;35.50;;;21.52;;
68074;SDS011;54864;52.002;5.468;2022-12-18T06:17:48;31.90;;;20.98;;
68074;SDS011;54864;52.002;5.468;2022-12-18T06:19:14;33.05;;;20.77;;
68074;SDS011;54864;52.002;5.468;2022-12-18T06:20:37;37.67;;;22.27;;
68074;SDS011;54864;52.002;5.468;2022-12-18T06:22:00;36.08;;;21.42;;
68074;SDS011;54864;52.002;5.468;2022-12-18T06:23:22;35.00;;;21.40;;
68074;SDS011;54864;52.002;5.468;2022-12-18T06:24:43;33.55;;;20.80;;
68074;SDS011;54864;52.002;5.468;2022-12-18T06:26:06;34.13;;;20.95;;